Kabala Airport

Jump to: basic info | weather | comments

Related pages: nearby airports | nearby navaids | notams | map

Basic information (top)

Codes: KBA GFKB
Location: lon 9.638323, lat -11.515560, elev 1,012 ft / 308 m msl
Status: small_airport
Scheduled airline service: no
Links: Wikipedia Mobile

Weather (top)

Current conditions for Labe Airport 111nm (206km) NNW (rec'd 2014/07/31 12:00Z):

GULB 311200Z 09004KT 9999 BKN020 24/21 Q1015 NOSIG

Airport forecast for Lungi International Airport 117nm (217km) WSW (rec'd 2014/07/31 12:00Z):

TAF GFLL 311000Z 3112/0118 21004KT 7000 -RA BKN009 
      TEMPO 3111/3119 26010KT 8000 BKN010 FEW027CB PROB30 
      TEMPO 3120/0104 12012KT 6000 TSRA BKN008 FEW026CB 
      BECMG 0108/0110 15006KT 8000 BKN010

Latest comments (top)

No comments yet for Kabala Airport

More... (top)

See also NOTAMs and nearby airports and navaids, or visit the Kabala Airport page at the main OurAirports website..